Marco Polo — C6JZ7 — position and weather

sailwx.info

Track history (hours):
 
Tides and Currents Weather Stations Pressure Air Temp Water Temp Dewpoint Dewpoint Depression Visibility Wind Speed Wind Dir Waves Ship Positions

Marco Polo

Operator: Orient Lines

Last reported at 2017-Jan-18 14:13 UTC. Time now 2017-Jan-19 21:21 UTC.
Position S 00°14' W 051°19'.

Type: Ship. MMSI: 308691456.

Date/timePositionNaut miles runAvg speedWind from/ knotsBaromVisibWave heightAir tempDewpointWater temp
2017-Jan-18 14:13S 00°14' W 051°19'913.9
2017-Jan-18 13:34S 00°08' W 051°12'7 6.3
2017-Jan-18 12:25S 00°04' W 051°07'0 0.1
2017-Jan-18 11:31S 00°04' W 051°07'9 4.8
2017-Jan-18 09:34N 00°03' W 051°00'1413.6
2017-Jan-18 08:34N 00°11' W 050°49'  
2017-Jan-10 15:24N 32°21' W 017°04'54 4.5
2017-Jan-10 03:32N 32°58' W 016°18'1614.1
2017-Jan-10 02:24N 33°09' W 016°04'3114.1
2017-Jan-10 00:14N 33°31' W 015°38'1114.2
2017-Jan-09 23:29N 33°38' W 015°29'1314.5
2017-Jan-09 22:33N 33°48' W 015°18'4715.1
2017-Jan-09 19:26N 34°21' W 014°38'2915.4
2017-Jan-09 17:33N 34°42' W 014°13'1615.5
2017-Jan-09 16:31N 34°53' W 013°59'26116.0
2017-Jan-09 00:15N 37°59' W 010°11'3017.1
2017-Jan-08 22:31N 38°20' W 009°45'1616.9
2017-Jan-08 21:33N 38°31' W 009°30'1514.8
2017-Jan-08 20:33N 38°41' W 009°16'7 6.5
2017-Jan-08 19:29N 38°43' W 009°07'0 0.0
2017-Jan-08 18:32N 38°43' W 009°07'0 0.0
2017-Jan-08 17:32N 38°43' W 009°07'0 0.0
2017-Jan-08 16:32N 38°43' W 009°07'0 0.0
2017-Jan-08 15:32N 38°43' W 009°07'0 0.0
2017-Jan-08 14:32N 38°43' W 009°07'  
Track history (hours):
 
Tides and Currents Weather Stations Pressure Air Temp Water Temp Dewpoint Dewpoint Depression Visibility Wind Speed Wind Dir Waves Ship Positions

Marco Polo

Operator: Orient Lines

Last reported at 2017-Jan-18 14:13 UTC. Time now 2017-Jan-19 21:21 UTC.
Position S 00°14' W 051°19'.

Type: Ship. MMSI: 308691456.

Date/timePositionNaut miles runAvg speedWind from/ knotsBaromVisibWave heightAir tempDewpointWater temp
2017-Jan-18 14:13S 00°14' W 051°19'913.9
2017-Jan-18 13:34S 00°08' W 051°12'7 6.3
2017-Jan-18 12:25S 00°04' W 051°07'0 0.1
2017-Jan-18 11:31S 00°04' W 051°07'9 4.8
2017-Jan-18 09:34N 00°03' W 051°00'1413.6
2017-Jan-18 08:34N 00°11' W 050°49'  
2017-Jan-10 15:24N 32°21' W 017°04'54 4.5
2017-Jan-10 03:32N 32°58' W 016°18'1614.1
2017-Jan-10 02:24N 33°09' W 016°04'3114.1
2017-Jan-10 00:14N 33°31' W 015°38'1114.2
2017-Jan-09 23:29N 33°38' W 015°29'1314.5
2017-Jan-09 22:33N 33°48' W 015°18'4715.1
2017-Jan-09 19:26N 34°21' W 014°38'2915.4
2017-Jan-09 17:33N 34°42' W 014°13'1615.5
2017-Jan-09 16:31N 34°53' W 013°59'26116.0
2017-Jan-09 00:15N 37°59' W 010°11'3017.1
2017-Jan-08 22:31N 38°20' W 009°45'1616.9
2017-Jan-08 21:33N 38°31' W 009°30'1514.8
2017-Jan-08 20:33N 38°41' W 009°16'7 6.5
2017-Jan-08 19:29N 38°43' W 009°07'0 0.0
2017-Jan-08 18:32N 38°43' W 009°07'0 0.0
2017-Jan-08 17:32N 38°43' W 009°07'0 0.0
2017-Jan-08 16:32N 38°43' W 009°07'0 0.0
2017-Jan-08 15:32N 38°43' W 009°07'0 0.0
2017-Jan-08 14:32N 38°43' W 009°07'  

Dump ship's entire track history